Time;durP1;ratioP1;P1;durP2;ratioP2;P2;SDS_P1;SDS_P2;PMS_P1;PMS_P2;Temp;Humidity;BMP_temperature;BMP_pressure;BME280_temperature;BME280_humidity;BME280_pressure;Samples;Min_cycle;Max_cycle;Signal;HPM_P1;HPM_P2
2023/01/29 00:01:13;;;;;;;107.60;45.17;;;-3.40;99.90;;;;;;5056225;28;20428;-64
2023/01/29 00:03:39;;;;;;;113.45;47.53;;;-3.40;99.90;;;;;;5056152;28;20466;-63
2023/01/29 00:06:07;;;;;;;106.05;46.00;;;-3.40;99.90;;;;;;5056378;28;20392;-64
2023/01/29 00:08:34;;;;;;;104.13;45.08;;;-3.30;99.90;;;;;;5056247;28;20443;-64
2023/01/29 00:11:02;;;;;;;113.10;47.63;;;-3.40;99.90;;;;;;5055996;28;20037;-64
2023/01/29 00:13:28;;;;;;;105.28;46.10;;;-3.40;99.90;;;;;;5055970;28;20021;-64
2023/01/29 00:15:55;;;;;;;102.57;44.38;;;-3.40;99.90;;;;;;5055931;28;20025;-64
2023/01/29 00:18:21;;;;;;;100.25;44.13;;;-3.40;99.90;;;;;;5055787;28;20470;-64
2023/01/29 00:20:46;;;;;;;104.03;44.40;;;-3.50;99.90;;;;;;5054663;28;20078;-64
2023/01/29 00:23:12;;;;;;;98.30;42.83;;;-3.50;99.90;;;;;;5055747;28;20033;-64
2023/01/29 00:25:37;;;;;;;100.80;43.60;;;-3.60;99.90;;;;;;5055731;28;20039;-64
2023/01/29 00:28:03;;;;;;;102.18;44.17;;;-3.70;99.90;;;;;;5054752;28;20485;-64
2023/01/29 00:30:28;;;;;;;105.47;46.08;;;-3.70;99.90;;;;;;5055151;28;20120;-64
2023/01/29 00:32:54;;;;;;;102.43;43.95;;;-3.70;99.90;;;;;;5055789;28;20078;-63
2023/01/29 00:35:20;;;;;;;97.10;42.65;;;-3.70;99.90;;;;;;5054641;28;20163;-64
2023/01/29 00:37:45;;;;;;;101.85;44.05;;;-3.70;99.90;;;;;;5055676;28;20391;-64
2023/01/29 00:40:12;;;;;;;95.50;41.35;;;-3.70;99.90;;;;;;5055433;28;20029;-64
2023/01/29 00:45:23;;;;;;;107.38;45.95;;;-3.70;99.90;;;;;;5055170;28;20017;-64
2023/01/29 00:47:48;;;;;;;99.20;43.63;;;-3.70;99.90;;;;;;5055413;28;20032;-64
2023/01/29 00:50:14;;;;;;;103.75;42.75;;;-3.80;99.90;;;;;;5055339;28;20025;-64
2023/01/29 00:52:40;;;;;;;99.15;43.53;;;-3.80;99.90;;;;;;5055169;28;20024;-64
2023/01/29 00:55:06;;;;;;;104.00;44.95;;;-3.80;99.90;;;;;;5055392;28;20498;-64
2023/01/29 00:57:33;;;;;;;102.53;43.33;;;-3.80;99.90;;;;;;5054884;28;20482;-64
2023/01/29 01:00:00;;;;;;;103.03;44.00;;;-3.80;99.90;;;;;;5055321;28;20471;-64
2023/01/29 01:05:16;;;;;;;96.57;43.80;;;-3.80;99.90;;;;;;5054701;28;20032;-64
2023/01/29 01:07:44;;;;;;;110.40;45.40;;;-3.70;99.90;;;;;;5055173;28;20025;-63
2023/01/29 01:10:21;;;;;;;111.53;47.10;;;-3.70;99.90;;;;;;5054872;28;20387;-63
2023/01/29 01:13:05;;;;;;;112.55;47.63;;;-3.50;99.90;;;;;;5054957;28;20025;-63
2023/01/29 01:15:34;;;;;;;114.70;47.35;;;-3.40;99.90;;;;;;5054787;28;20112;-64
2023/01/29 01:18:01;;;;;;;117.97;48.63;;;-3.30;99.90;;;;;;5054649;28;20025;-64
2023/01/29 01:20:29;;;;;;;109.20;46.15;;;-3.20;99.90;;;;;;5054689;28;20017;-64
2023/01/29 01:22:55;;;;;;;111.75;46.25;;;-3.20;99.90;;;;;;5054632;28;20024;-64
2023/01/29 01:25:23;;;;;;;112.55;46.22;;;-3.10;99.90;;;;;;5054638;28;20028;-64
2023/01/29 01:27:52;;;;;;;123.60;48.80;;;-3.00;99.90;;;;;;5054599;28;20031;-64
2023/01/29 01:30:17;;;;;;;112.95;46.50;;;-2.90;99.90;;;;;;5054664;28;20074;-64
2023/01/29 01:32:43;;;;;;;114.13;48.35;;;-2.90;99.90;;;;;;5054453;28;20475;-64
2023/01/29 01:35:10;;;;;;;115.68;49.55;;;-2.90;99.90;;;;;;5036683;28;20510;-64
2023/01/29 01:37:36;;;;;;;118.68;47.92;;;-2.90;99.90;;;;;;5054298;28;20083;-64
2023/01/29 01:40:11;;;;;;;114.63;48.88;;;-2.90;99.90;;;;;;5054292;28;20405;-64
2023/01/29 01:42:38;;;;;;;114.82;48.38;;;-2.90;99.90;;;;;;5053671;28;20104;-64
2023/01/29 01:45:06;;;;;;;109.95;46.38;;;-3.00;99.90;;;;;;5053058;28;20028;-64
2023/01/29 01:47:44;;;;;;;107.32;47.53;;;-3.10;99.90;;;;;;5054386;28;20059;-64
2023/01/29 01:50:16;;;;;;;119.55;46.83;;;-3.10;99.90;;;;;;5054341;28;20056;-64
2023/01/29 01:52:47;;;;;;;105.30;44.35;;;-3.00;99.90;;;;;;5054357;28;20464;-64
2023/01/29 01:55:16;;;;;;;107.93;46.25;;;-3.10;99.90;;;;;;5054250;28;20029;-64
2023/01/29 01:57:43;;;;;;;104.65;44.17;;;-3.10;99.90;;;;;;5053796;28;20102;-63
2023/01/29 02:00:13;;;;;;;108.25;44.38;;;-3.20;99.90;;;;;;5054215;28;20028;-64
2023/01/29 02:11:00;;;;;;;111.45;45.58;;;-3.20;99.90;;;;;;5053555;28;20048;-64
2023/01/29 02:13:26;;;;;;;111.15;45.85;;;-3.00;99.90;;;;;;5053933;28;20029;-64
2023/01/29 02:15:51;;;;;;;117.28;47.28;;;-2.90;99.90;;;;;;5053912;28;20096;-64
2023/01/29 02:18:20;;;;;;;111.40;47.47;;;-2.80;99.90;;;;;;5053578;28;20079;-64
2023/01/29 02:21:01;;;;;;;111.90;46.42;;;-2.80;99.90;;;;;;5052522;28;20017;-64
2023/01/29 02:24:06;;;;;;;109.65;45.33;;;-2.80;99.90;;;;;;5053539;28;20048;-64
2023/01/29 02:29:44;;;;;;;107.70;45.67;;;-2.80;99.90;;;;;;5111214;27;20380;-63
2023/01/29 02:32:19;;;;;;;;;;;-2.70;99.90;;;;;;5111407;28;20032;-62
2023/01/29 02:35:27;;;;;;;111.88;45.58;;;-2.70;99.90;;;;;;5111237;28;19926;-62
2023/01/29 02:38:07;;;;;;;117.10;45.88;;;-2.70;99.90;;;;;;5111253;28;20034;-62
2023/01/29 02:40:42;;;;;;;109.60;43.83;;;-2.70;99.90;;;;;;5110874;28;20024;-62
2023/01/29 02:43:27;;;;;;;105.65;44.47;;;-2.70;99.90;;;;;;5111102;28;20110;-63
2023/01/29 02:46:26;;;;;;;107.10;45.30;;;-2.70;99.90;;;;;;5110868;28;20024;-63
2023/01/29 02:48:59;;;;;;;119.43;47.95;;;-2.70;99.90;;;;;;5110545;28;20115;-63
2023/01/29 02:51:36;;;;;;;;;;;-2.70;99.90;;;;;;5111423;28;20023;-62
2023/01/29 02:54:07;;;;;;;119.47;47.45;;;-2.60;99.90;;;;;;5110872;28;20392;-62
2023/01/29 02:56:44;;;;;;;128.00;49.88;;;-2.50;99.90;;;;;;5110848;28;20028;-62
2023/01/29 02:59:16;;;;;;;123.40;48.47;;;-2.50;99.90;;;;;;5110549;28;20031;-62
2023/01/29 03:01:56;;;;;;;121.80;46.75;;;-2.40;99.90;;;;;;5109340;28;20024;-62
2023/01/29 03:04:29;;;;;;;116.00;45.38;;;-2.40;99.90;;;;;;5110510;28;20028;-63
2023/01/29 03:07:02;;;;;;;114.47;46.63;;;-2.40;99.90;;;;;;5110320;28;20024;-62
2023/01/29 03:09:35;;;;;;;115.40;46.55;;;-2.40;99.90;;;;;;5109073;28;20203;-62
2023/01/29 03:12:17;;;;;;;;;;;-2.30;99.90;;;;;;5110972;28;20028;-62
2023/01/29 03:15:17;;;;;;;120.85;45.90;;;-2.30;99.90;;;;;;5110535;28;19946;-62
2023/01/29 03:17:40;;;;;;;120.20;46.15;;;-2.20;99.90;;;;;;5109033;28;20031;-62
2023/01/29 03:20:13;;;;;;;119.10;45.92;;;-2.20;99.90;;;;;;5110445;28;20028;-62
2023/01/29 03:22:42;;;;;;;123.70;47.10;;;-2.20;99.90;;;;;;5110102;28;20028;-62
2023/01/29 03:33:43;;;;;;;109.57;44.35;;;-2.10;99.90;;;;;;5109733;28;20062;-62
2023/01/29 03:36:14;;;;;;;106.93;44.05;;;-2.20;99.90;;;;;;5109021;28;20027;-62
2023/01/29 03:38:39;;;;;;;113.00;46.10;;;-2.10;99.90;;;;;;5107688;28;20024;-62
2023/01/29 03:41:14;;;;;;;110.40;44.72;;;-2.10;99.90;;;;;;5096347;28;20111;-62
2023/01/29 03:43:53;;;;;;;105.45;43.30;;;-2.00;99.90;;;;;;5096127;28;20027;-62
2023/01/29 03:46:44;;;;;;;112.80;45.90;;;-2.00;99.90;;;;;;5096145;28;20089;-63
2023/01/29 03:49:42;;;;;;;116.20;44.78;;;-2.00;99.90;;;;;;5095864;28;20508;-62
2023/01/29 03:52:24;;;;;;;115.85;45.17;;;-2.00;99.90;;;;;;5094650;28;20099;-62
2023/01/29 03:58:23;;;;;;;108.25;43.85;;;-1.90;99.90;;;;;;5111096;27;20662;-64
2023/01/29 04:00:55;;;;;;;105.95;42.70;;;-1.90;99.90;;;;;;5110917;28;20379;-62
2023/01/29 04:03:26;;;;;;;104.80;42.83;;;-1.90;99.90;;;;;;5111295;28;20389;-62
2023/01/29 04:06:08;;;;;;;121.80;45.92;;;-1.90;99.90;;;;;;5110983;28;20047;-63
2023/01/29 04:08:43;;;;;;;116.68;48.25;;;-1.90;99.90;;;;;;5111155;28;20081;-62
2023/01/29 04:11:13;;;;;;;119.95;47.40;;;-1.90;99.90;;;;;;5111122;28;20039;-62
2023/01/29 04:13:39;;;;;;;111.95;45.25;;;-1.90;99.90;;;;;;5111093;28;20028;-64
2023/01/29 04:16:09;;;;;;;114.18;45.45;;;-1.80;99.90;;;;;;5110725;28;20028;-62
2023/01/29 04:18:35;;;;;;;114.80;46.35;;;-1.80;99.90;;;;;;5110717;28;20024;-62
2023/01/29 04:21:01;;;;;;;114.18;44.92;;;-1.80;99.90;;;;;;5109560;28;20024;-62
2023/01/29 04:23:27;;;;;;;110.75;46.38;;;-1.80;99.90;;;;;;5110595;28;20052;-62
2023/01/29 04:26:15;;;;;;;121.25;47.28;;;-1.70;99.90;;;;;;5110552;28;20059;-62
2023/01/29 04:29:08;;;;;;;113.10;44.08;;;-1.70;99.90;;;;;;5110505;28;20081;-62
2023/01/29 04:31:41;;;;;;;92.28;35.70;;;-1.70;99.90;;;;;;5110350;28;20030;-62
2023/01/29 04:34:26;;;;;;;118.85;46.92;;;-1.70;99.90;;;;;;5110416;28;20059;-62
2023/01/29 04:37:07;;;;;;;118.65;47.35;;;-1.70;99.90;;;;;;5110514;28;20493;-63
2023/01/29 04:39:43;;;;;;;115.88;46.55;;;-1.60;99.90;;;;;;5109023;28;20024;-62
2023/01/29 04:42:30;;;;;;;123.90;49.33;;;-1.60;99.90;;;;;;5110531;28;20032;-62
2023/01/29 04:45:06;;;;;;;117.63;48.90;;;-1.60;99.90;;;;;;5092281;28;20072;-62
2023/01/29 04:47:43;;;;;;;118.03;46.13;;;-1.60;99.90;;;;;;5110197;28;20030;-62
2023/01/29 04:50:27;;;;;;;119.03;47.85;;;-1.60;99.90;;;;;;5110405;28;20221;-62
2023/01/29 04:53:15;;;;;;;123.82;49.33;;;-1.50;99.90;;;;;;5110134;28;20028;-62
2023/01/29 04:55:53;;;;;;;119.78;48.58;;;-1.50;99.90;;;;;;5109713;28;20391;-62
2023/01/29 04:58:30;;;;;;;128.15;50.38;;;-1.50;99.90;;;;;;5110094;28;20020;-62
2023/01/29 05:00:57;;;;;;;122.18;49.63;;;-1.50;99.90;;;;;;5108761;28;20070;-65
2023/01/29 05:03:25;;;;;;;126.85;51.55;;;-1.50;99.90;;;;;;5109861;28;20016;-64
2023/01/29 05:05:52;;;;;;;130.93;50.65;;;-1.50;99.90;;;;;;5108679;28;20058;-64
2023/01/29 05:08:22;;;;;;;125.28;50.17;;;-1.50;99.90;;;;;;5102149;28;20032;-62
2023/01/29 05:10:50;;;;;;;127.15;50.72;;;-1.40;99.90;;;;;;5096410;28;20031;-62
2023/01/29 05:13:19;;;;;;;123.50;49.45;;;-1.40;99.90;;;;;;5096461;28;20028;-62
2023/01/29 05:15:51;;;;;;;121.28;48.50;;;-1.40;99.90;;;;;;5096235;28;20032;-62
2023/01/29 05:18:17;;;;;;;121.45;47.58;;;-1.30;99.90;;;;;;5096030;28;20016;-62
2023/01/29 05:20:44;;;;;;;122.15;48.88;;;-1.30;99.90;;;;;;5096219;28;20031;-62
2023/01/29 05:23:15;;;;;;;127.05;49.47;;;-1.30;99.90;;;;;;5096201;28;20081;-62
2023/01/29 05:25:41;;;;;;;121.28;48.65;;;-1.30;99.90;;;;;;5095842;28;20025;-62
2023/01/29 05:28:16;;;;;;;116.38;48.00;;;-1.30;99.90;;;;;;5094719;28;20035;-62
2023/01/29 05:30:45;;;;;;;132.77;50.58;;;-1.40;99.90;;;;;;5095762;28;20461;-62
2023/01/29 05:33:16;;;;;;;121.40;47.95;;;-1.30;99.90;;;;;;5095696;28;20028;-62
2023/01/29 05:35:42;;;;;;;121.78;50.60;;;-1.30;99.90;;;;;;5095623;28;20074;-62
2023/01/29 05:38:08;;;;;;;126.53;51.05;;;-1.30;99.90;;;;;;5095902;28;20040;-64
2023/01/29 05:40:33;;;;;;;129.00;49.78;;;-1.30;99.90;;;;;;5095837;28;20028;-64
2023/01/29 05:42:59;;;;;;;125.70;49.75;;;-1.30;99.90;;;;;;5095554;28;20481;-64
2023/01/29 05:45:25;;;;;;;126.70;49.13;;;-1.20;99.90;;;;;;5095492;28;20129;-64
2023/01/29 05:47:54;;;;;;;120.65;50.20;;;-1.20;99.90;;;;;;5095711;28;20103;-64
2023/01/29 05:50:19;;;;;;;122.18;49.08;;;-1.20;99.90;;;;;;5095485;28;20050;-62
2023/01/29 05:52:45;;;;;;;123.38;49.75;;;-1.20;99.90;;;;;;5094056;28;20024;-62
2023/01/29 05:55:10;;;;;;;124.63;49.70;;;-1.20;99.90;;;;;;5094105;28;20424;-64
2023/01/29 05:57:36;;;;;;;125.03;48.10;;;-1.20;99.90;;;;;;5093853;28;20508;-64
2023/01/29 06:00:03;;;;;;;126.72;51.53;;;-1.20;99.90;;;;;;5095435;28;20025;-62
2023/01/29 06:02:30;;;;;;;125.32;49.80;;;-1.20;99.90;;;;;;5093978;28;20090;-62
2023/01/29 06:04:56;;;;;;;121.53;48.67;;;-1.20;99.90;;;;;;5095393;28;20048;-62
2023/01/29 06:07:21;;;;;;;126.53;51.65;;;-1.20;99.90;;;;;;5095317;28;20029;-62
2023/01/29 06:09:47;;;;;;;123.35;49.83;;;-1.20;99.90;;;;;;5095269;28;20016;-64
2023/01/29 06:12:12;;;;;;;116.90;47.85;;;-1.10;99.90;;;;;;5095234;28;20081;-62
2023/01/29 06:14:38;;;;;;;124.35;49.35;;;-1.10;99.90;;;;;;5094940;28;20072;-62
2023/01/29 06:17:03;;;;;;;133.35;51.97;;;-1.10;99.90;;;;;;5093474;28;20031;-62
2023/01/29 06:19:29;;;;;;;123.90;50.22;;;-1.00;99.90;;;;;;5093935;28;20027;-62
2023/01/29 06:21:55;;;;;;;121.82;49.28;;;-1.00;99.90;;;;;;5094875;28;20099;-65
2023/01/29 06:24:20;;;;;;;121.70;49.83;;;-1.00;99.90;;;;;;5094874;28;20535;-64
2023/01/29 06:26:46;;;;;;;119.68;49.38;;;-1.00;99.90;;;;;;5094639;28;20073;-64
2023/01/29 06:29:11;;;;;;;122.72;49.72;;;-1.00;99.90;;;;;;5094901;28;20145;-62
2023/01/29 06:31:37;;;;;;;119.53;48.72;;;-1.00;99.90;;;;;;5094638;28;20493;-62
2023/01/29 06:34:03;;;;;;;121.43;48.35;;;-1.00;99.90;;;;;;5094535;28;20122;-62
2023/01/29 06:36:29;;;;;;;117.28;48.20;;;-0.90;99.90;;;;;;5094500;28;20390;-62
2023/01/29 06:38:54;;;;;;;124.90;48.95;;;-0.90;99.90;;;;;;5094692;28;20012;-62
2023/01/29 06:41:24;;;;;;;132.85;50.28;;;-0.90;99.90;;;;;;5094471;28;20026;-64
2023/01/29 06:43:50;;;;;;;122.68;49.80;;;-0.90;99.90;;;;;;5093566;28;20028;-64
2023/01/29 06:46:16;;;;;;;119.22;48.42;;;-0.90;99.90;;;;;;5094382;28;20065;-65
2023/01/29 06:48:41;;;;;;;129.10;50.58;;;-0.90;99.90;;;;;;5094269;28;20486;-62
2023/01/29 06:51:09;;;;;;;128.52;49.13;;;-0.90;99.90;;;;;;5094262;28;20036;-63
2023/01/29 06:53:36;;;;;;;130.45;50.83;;;-0.80;99.90;;;;;;5094443;28;20039;-62
2023/01/29 06:56:02;;;;;;;126.68;50.03;;;-0.90;99.90;;;;;;5093806;28;20036;-62
2023/01/29 06:58:27;;;;;;;129.98;51.25;;;-0.80;99.90;;;;;;5094173;28;20038;-62
2023/01/29 07:00:53;;;;;;;128.27;49.92;;;-0.80;99.90;;;;;;5094288;28;20099;-62
2023/01/29 07:03:19;;;;;;;122.72;48.80;;;-0.80;99.90;;;;;;5093019;28;20087;-62
2023/01/29 07:05:52;;;;;;;124.65;49.95;;;-0.80;99.90;;;;;;5093969;28;20024;-62
2023/01/29 07:08:21;;;;;;;116.97;46.70;;;-0.80;99.90;;;;;;5093917;28;20016;-62
2023/01/29 07:10:47;;;;;;;116.97;46.80;;;-0.80;99.90;;;;;;5093919;28;20030;-62
2023/01/29 07:13:13;;;;;;;117.07;47.92;;;-0.70;99.90;;;;;;5093853;28;20045;-62
2023/01/29 07:15:38;;;;;;;121.20;46.35;;;-0.70;99.90;;;;;;5093694;28;20016;-62
2023/01/29 07:18:10;;;;;;;112.03;45.22;;;-0.70;99.90;;;;;;5093831;28;20027;-62
2023/01/29 07:20:38;;;;;;;92.45;35.28;;;-0.70;99.90;;;;;;5094074;28;20020;-62
2023/01/29 07:23:04;;;;;;;112.75;45.17;;;-0.70;99.90;;;;;;5092402;28;20601;-62
2023/01/29 07:25:30;;;;;;;111.72;44.13;;;-0.70;99.90;;;;;;5093677;28;20024;-62
2023/01/29 07:27:59;;;;;;;110.65;43.33;;;-0.70;99.90;;;;;;5093838;28;20030;-62
2023/01/29 07:30:25;;;;;;;117.07;45.17;;;-0.70;99.90;;;;;;5092121;28;20173;-62
2023/01/29 07:32:50;;;;;;;114.22;44.72;;;-0.60;99.90;;;;;;5092315;28;20115;-62
2023/01/29 07:35:16;;;;;;;107.90;42.97;;;-0.60;99.90;;;;;;5093507;28;20454;-62
2023/01/29 07:37:41;;;;;;;116.00;44.45;;;-0.60;99.90;;;;;;5092124;28;20492;-62
2023/01/29 07:40:11;;;;;;;114.60;45.72;;;-0.60;99.90;;;;;;5093481;28;20077;-62
2023/01/29 07:42:38;;;;;;;111.70;45.90;;;-0.50;99.90;;;;;;5093448;28;20024;-62
2023/01/29 07:45:05;;;;;;;125.03;47.50;;;-0.50;99.90;;;;;;5092098;28;20031;-62
2023/01/29 07:47:31;;;;;;;117.13;45.60;;;-0.50;99.90;;;;;;5093397;28;20035;-62
2023/01/29 07:49:56;;;;;;;120.30;47.70;;;-0.50;99.90;;;;;;5093596;28;20032;-62
2023/01/29 07:52:22;;;;;;;119.28;46.58;;;-0.50;99.90;;;;;;5093537;28;20481;-62
2023/01/29 07:54:47;;;;;;;118.57;46.03;;;-0.50;99.90;;;;;;5093294;28;20077;-62
2023/01/29 07:57:13;;;;;;;118.70;46.03;;;-0.50;99.90;;;;;;5092986;28;20044;-62
2023/01/29 07:59:38;;;;;;;115.60;45.25;;;-0.40;99.90;;;;;;5093524;28;20024;-62
2023/01/29 08:02:04;;;;;;;117.97;45.25;;;-0.40;99.90;;;;;;5093433;28;20035;-62
2023/01/29 08:04:30;;;;;;;112.95;43.90;;;-0.50;99.90;;;;;;5093198;28;20116;-62
2023/01/29 08:06:55;;;;;;;117.38;49.05;;;-0.40;99.90;;;;;;5093413;28;20538;-62
2023/01/29 08:09:21;;;;;;;114.80;46.97;;;-0.40;99.90;;;;;;5093189;28;20548;-62
2023/01/29 08:11:46;;;;;;;117.28;46.50;;;-0.40;99.90;;;;;;5093145;28;20024;-62
2023/01/29 08:14:12;;;;;;;115.00;47.13;;;-0.40;99.90;;;;;;5093078;28;20026;-62
2023/01/29 08:16:37;;;;;;;111.80;43.42;;;-0.40;99.90;;;;;;5093030;28;20032;-62
2023/01/29 08:19:03;;;;;;;108.85;43.13;;;-0.40;99.90;;;;;;5093073;28;20028;-62
2023/01/29 08:21:28;;;;;;;115.28;46.33;;;-0.40;99.90;;;;;;5093264;28;20020;-62
2023/01/29 08:23:54;;;;;;;110.57;45.20;;;-0.40;99.90;;;;;;5091733;28;20026;-62
2023/01/29 08:26:19;;;;;;;107.60;43.75;;;-0.40;99.90;;;;;;5092928;28;20034;-62
2023/01/29 08:28:45;;;;;;;108.65;42.25;;;-0.30;99.90;;;;;;5092937;28;20105;-62
2023/01/29 08:31:14;;;;;;;112.00;43.92;;;-0.40;99.90;;;;;;5092956;28;20028;-62
2023/01/29 08:33:39;;;;;;;113.63;44.20;;;-0.30;99.90;;;;;;5093139;28;20101;-62
2023/01/29 08:36:06;;;;;;;124.32;45.88;;;-0.30;99.90;;;;;;5092846;28;20127;-62
2023/01/29 08:38:31;;;;;;;114.97;43.88;;;-0.30;99.90;;;;;;5093113;28;20024;-62
2023/01/29 08:40:57;;;;;;;104.18;43.42;;;-0.30;99.90;;;;;;5092899;28;20083;-62
2023/01/29 08:43:22;;;;;;;113.47;44.17;;;-0.20;99.90;;;;;;5093158;28;20410;-62
2023/01/29 08:45:48;;;;;;;104.45;43.65;;;-0.20;99.90;;;;;;5096623;28;20477;-62
2023/01/29 08:48:13;;;;;;;107.60;42.45;;;-0.20;99.90;;;;;;5096616;28;20023;-62
2023/01/29 08:50:39;;;;;;;106.20;43.45;;;-0.20;99.90;;;;;;5095660;28;20024;-62
2023/01/29 08:53:07;;;;;;;101.85;40.88;;;-0.20;99.90;;;;;;5095293;28;20028;-62
2023/01/29 08:55:34;;;;;;;98.07;39.72;;;-0.10;99.90;;;;;;5096588;28;20106;-63
2023/01/29 08:58:00;;;;;;;106.75;43.35;;;-0.10;99.90;;;;;;5096300;28;20028;-62
2023/01/29 09:00:25;;;;;;;103.55;41.90;;;0.00;99.90;;;;;;5096381;28;20153;-63
2023/01/29 09:02:51;;;;;;;113.50;42.85;;;0.10;99.90;;;;;;5096334;28;20048;-62
2023/01/29 09:05:16;;;;;;;110.90;44.40;;;0.10;99.90;;;;;;5095111;28;20024;-62
2023/01/29 09:07:42;;;;;;;105.53;40.95;;;0.10;99.90;;;;;;5096241;28;20427;-62
2023/01/29 09:10:08;;;;;;;95.35;40.13;;;0.20;99.90;;;;;;5096251;28;20067;-62
2023/01/29 09:12:34;;;;;;;106.43;42.25;;;0.20;99.90;;;;;;5096124;28;20069;-62
2023/01/29 09:14:59;;;;;;;99.95;41.30;;;0.20;99.90;;;;;;5096139;28;20421;-62
2023/01/29 09:17:25;;;;;;;102.97;43.08;;;0.20;99.90;;;;;;5096236;28;20020;-62
2023/01/29 09:19:51;;;;;;;98.22;42.08;;;0.20;99.90;;;;;;5096279;28;20115;-62
2023/01/29 09:22:18;;;;;;;99.28;41.10;;;0.30;99.90;;;;;;5094803;28;20549;-62
2023/01/29 09:24:43;;;;;;;106.60;42.72;;;0.40;99.90;;;;;;5095884;28;20519;-62
2023/01/29 09:27:09;;;;;;;100.75;41.30;;;0.40;99.90;;;;;;5095894;28;20028;-62
2023/01/29 09:29:35;;;;;;;101.75;42.42;;;0.50;99.90;;;;;;5095879;28;20447;-62
2023/01/29 09:32:01;;;;;;;96.18;42.17;;;0.60;99.90;;;;;;5095818;28;20110;-62
2023/01/29 09:34:26;;;;;;;96.72;41.10;;;0.60;99.90;;;;;;5095746;28;20085;-63
2023/01/29 09:36:52;;;;;;;94.72;39.60;;;0.60;99.90;;;;;;5095649;28;20440;-62
2023/01/29 09:39:17;;;;;;;97.97;41.63;;;0.60;99.90;;;;;;5095618;28;20442;-62
2023/01/29 09:41:54;;;;;;;97.10;40.63;;;0.70;99.90;;;;;;5095575;28;20028;-62
2023/01/29 09:44:59;;;;;;;102.22;41.92;;;0.70;99.90;;;;;;5094194;28;20021;-62
2023/01/29 09:47:26;;;;;;;97.53;40.25;;;0.70;99.90;;;;;;5095356;27;20439;-62
2023/01/29 09:49:59;;;;;;;95.80;40.25;;;0.70;99.90;;;;;;5094262;28;20036;-62
2023/01/29 09:52:30;;;;;;;99.03;40.00;;;0.70;99.90;;;;;;5095674;28;20032;-62
2023/01/29 09:55:09;;;;;;;94.38;39.10;;;0.70;99.90;;;;;;5095506;28;20043;-62
2023/01/29 09:58:14;;;;;;;94.00;39.92;;;0.70;99.90;;;;;;5095056;28;20495;-62
2023/01/29 10:00:58;;;;;;;93.72;38.78;;;0.80;99.90;;;;;;5095118;28;20028;-62
2023/01/29 10:03:53;;;;;;;93.45;38.78;;;0.80;99.90;;;;;;5093990;28;20027;-62
2023/01/29 10:10:01;;;;;;;92.15;38.28;;;0.90;99.90;;;;;;5070382;28;20926;-62
2023/01/29 10:12:56;;;;;;;93.28;39.08;;;1.00;99.90;;;;;;5070362;28;20029;-63
2023/01/29 10:15:51;;;;;;;91.45;40.35;;;1.00;99.90;;;;;;5070287;28;20025;-62
2023/01/29 10:18:57;;;;;;;95.07;38.28;;;1.00;99.90;;;;;;5070277;28;20119;-62
2023/01/29 10:21:41;;;;;;;91.88;38.13;;;1.00;99.90;;;;;;5070273;28;20035;-62
2023/01/29 10:26:54;;;;;;;88.75;38.38;;;1.10;99.90;;;;;;5070585;28;20387;-63
2023/01/29 10:29:20;;;;;;;91.10;38.78;;;1.10;99.90;;;;;;5070450;28;20036;-62
2023/01/29 10:31:53;;;;;;;92.72;38.10;;;1.10;99.90;;;;;;5070361;28;20029;-63
2023/01/29 10:34:24;;;;;;;;;;;1.10;99.90;;;;;;5070871;28;20558;-62
2023/01/29 10:36:50;;;;;;;92.55;38.53;;;1.10;99.90;;;;;;5085938;28;19911;-62
2023/01/29 10:39:20;;;;;;;86.63;37.55;;;1.10;99.90;;;;;;5069058;28;20116;-63
2023/01/29 10:45:20;;;;;;;86.80;36.97;;;1.00;99.90;;;;;;5070610;28;20880;-62
2023/01/29 10:48:11;;;;;;;92.18;39.75;;;1.10;99.90;;;;;;5070434;28;20051;-62
2023/01/29 10:50:56;;;;;;;89.75;39.58;;;1.10;99.90;;;;;;5070283;28;20040;-63
2023/01/29 10:53:47;;;;;;;91.65;40.20;;;1.10;99.90;;;;;;5069486;28;20053;-62
2023/01/29 10:56:40;;;;;;;94.10;38.80;;;1.10;99.90;;;;;;5070382;28;20051;-62
2023/01/29 10:59:45;;;;;;;86.07;35.85;;;1.10;99.90;;;;;;5070257;28;20522;-62
2023/01/29 11:02:16;;;;;;;87.85;36.65;;;1.20;99.90;;;;;;5070104;28;20033;-62
2023/01/29 11:04:42;;;;;;;85.32;37.03;;;1.20;99.90;;;;;;5070089;28;20023;-62
2023/01/29 11:07:09;;;;;;;89.00;38.97;;;1.30;99.90;;;;;;5070338;28;20482;-62
2023/01/29 11:09:42;;;;;;;92.47;39.25;;;1.30;99.90;;;;;;5070282;28;20027;-63
2023/01/29 11:12:17;;;;;;;82.47;35.92;;;1.40;99.90;;;;;;5070016;28;20100;-63
2023/01/29 11:14:47;;;;;;;88.07;36.75;;;1.40;99.90;;;;;;5069942;28;20056;-62
2023/01/29 11:17:16;;;;;;;89.22;37.13;;;1.40;99.90;;;;;;5069867;28;20035;-62
2023/01/29 11:19:44;;;;;;;87.10;37.90;;;1.40;99.90;;;;;;5070114;28;20078;-62
2023/01/29 11:22:14;;;;;;;85.32;36.90;;;1.40;99.90;;;;;;5069885;28;20482;-63
2023/01/29 11:24:40;;;;;;;92.38;38.97;;;1.40;99.90;;;;;;5069627;28;20082;-62
2023/01/29 11:27:21;;;;;;;87.93;37.15;;;1.40;99.90;;;;;;5070068;28;20025;-62
2023/01/29 11:29:47;;;;;;;88.13;36.22;;;1.50;99.90;;;;;;5069618;28;20021;-63
2023/01/29 11:32:27;;;;;;;80.70;36.10;;;1.50;99.90;;;;;;5069840;28;20509;-62
2023/01/29 11:35:04;;;;;;;80.88;36.60;;;1.60;99.90;;;;;;5069500;28;20027;-62
2023/01/29 11:37:34;;;;;;;79.68;35.00;;;1.60;99.90;;;;;;5069558;28;20016;-62
2023/01/29 11:39:59;;;;;;;84.13;36.33;;;1.60;99.90;;;;;;5069397;28;20032;-63
2023/01/29 11:42:30;;;;;;;78.93;33.60;;;1.70;99.90;;;;;;5069140;28;20025;-63
2023/01/29 11:44:55;;;;;;;84.30;35.67;;;1.70;99.90;;;;;;5069521;28;20111;-62
2023/01/29 11:47:26;;;;;;;82.30;35.25;;;1.70;99.90;;;;;;5069271;28;20098;-63
2023/01/29 11:49:54;;;;;;;79.57;36.30;;;1.70;99.90;;;;;;5069226;28;20021;-62
2023/01/29 11:52:24;;;;;;;78.63;34.78;;;1.80;99.90;;;;;;5069369;28;20028;-63
2023/01/29 11:54:58;;;;;;;87.82;34.67;;;1.90;99.90;;;;;;5063322;28;20112;-63
2023/01/29 11:57:32;;;;;;;80.60;35.95;;;1.80;99.90;;;;;;5056164;28;20029;-62
2023/01/29 12:00:05;;;;;;;80.63;35.08;;;1.80;99.90;;;;;;5055016;28;20021;-62
2023/01/29 12:02:44;;;;;;;78.95;34.53;;;1.80;99.90;;;;;;5056020;28;20021;-62
2023/01/29 12:05:15;;;;;;;80.13;35.97;;;1.80;99.90;;;;;;5055728;28;20029;-63
2023/01/29 12:07:45;;;;;;;76.78;34.80;;;1.90;99.90;;;;;;5055944;28;20025;-63
2023/01/29 12:15:47;;;;;;;77.47;36.97;;;2.00;99.90;;;;;;5070651;28;20383;-62
2023/01/29 12:18:37;;;;;;;79.85;35.20;;;2.00;99.90;;;;;;5070764;28;20482;-63
2023/01/29 12:21:04;;;;;;;76.32;32.78;;;2.00;99.90;;;;;;5070363;28;20067;-63
2023/01/29 12:23:54;;;;;;;77.32;34.95;;;2.00;99.90;;;;;;5070486;28;20037;-63
2023/01/29 12:29:32;;;;;;;76.45;33.63;;;2.10;99.90;;;;;;5070545;28;20449;-63
2023/01/29 12:32:17;;;;;;;;;;;2.00;99.90;;;;;;5070785;28;20103;-63
2023/01/29 12:35:09;;;;;;;78.63;35.53;;;2.00;99.90;;;;;;5070447;28;19951;-63
2023/01/29 12:38:14;;;;;;;80.65;34.67;;;2.00;99.90;;;;;;5070456;28;20028;-63
2023/01/29 12:41:06;;;;;;;80.22;36.72;;;2.00;99.90;;;;;;5070220;28;20039;-62
2023/01/29 12:43:42;;;;;;;79.13;35.95;;;2.00;99.90;;;;;;5070257;28;20422;-63
2023/01/29 12:46:20;;;;;;;77.55;36.08;;;2.00;99.90;;;;;;5070257;28;20036;-62
2023/01/29 12:48:48;;;;;;;76.55;34.80;;;2.00;99.90;;;;;;5070109;28;20051;-62
2023/01/29 12:51:19;;;;;;;81.25;36.72;;;2.00;99.90;;;;;;5070188;28;20031;-62
2023/01/29 12:53:56;;;;;;;79.95;35.85;;;1.90;99.90;;;;;;5070325;28;20086;-62
2023/01/29 12:56:35;;;;;;;81.30;34.97;;;2.00;99.90;;;;;;5070243;28;20025;-62
2023/01/29 12:59:09;;;;;;;84.80;36.42;;;2.00;99.90;;;;;;5070247;28;20386;-63
2023/01/29 13:01:41;;;;;;;77.38;35.30;;;2.10;99.90;;;;;;5069925;28;20017;-63
2023/01/29 13:04:25;;;;;;;73.22;33.70;;;2.10;99.90;;;;;;5069956;28;20103;-63
2023/01/29 13:06:58;;;;;;;74.65;34.40;;;2.10;99.90;;;;;;5069975;28;20474;-63
2023/01/29 13:09:27;;;;;;;74.93;34.65;;;2.10;99.90;;;;;;5069927;28;20025;-63
2023/01/29 13:12:01;;;;;;;76.13;36.22;;;2.10;99.90;;;;;;5069906;28;20086;-62
2023/01/29 13:14:41;;;;;;;74.63;34.45;;;2.10;99.90;;;;;;5069672;28;20023;-62
2023/01/29 13:17:18;;;;;;;78.28;34.53;;;2.10;99.90;;;;;;5068335;28;20024;-63
2023/01/29 13:19:48;;;;;;;76.13;33.72;;;2.10;99.90;;;;;;5069536;28;20021;-63
2023/01/29 13:22:22;;;;;;;81.03;35.97;;;2.10;99.90;;;;;;5069741;28;20083;-63
2023/01/29 13:24:48;;;;;;;77.90;34.55;;;2.20;99.90;;;;;;5069668;28;20056;-63
2023/01/29 13:27:20;;;;;;;70.03;32.20;;;2.20;99.90;;;;;;5069259;28;20118;-63
2023/01/29 13:29:46;;;;;;;76.70;34.17;;;2.20;99.90;;;;;;5069518;28;20036;-63
2023/01/29 13:32:20;;;;;;;76.75;35.05;;;2.20;99.90;;;;;;5069458;28;20108;-63
2023/01/29 13:34:48;;;;;;;68.43;31.50;;;2.20;99.90;;;;;;5069409;28;20033;-63